sensor_id;sensor_type;location;lat;lon;timestamp;pressure;altitude;pressure_sealevel;temperature;humidity
56829;BME280;52443;50.130;8.718;2022-07-23T00:03:46;99882.94;;;25.30;45.75
56829;BME280;52443;50.130;8.718;2022-07-23T00:08:51;99874.63;;;25.24;46.25
56829;BME280;52443;50.130;8.718;2022-07-23T00:13:55;99855.53;;;25.19;46.33
56829;BME280;52443;50.130;8.718;2022-07-23T00:18:58;99852.53;;;25.12;46.28
56829;BME280;52443;50.130;8.718;2022-07-23T00:24:04;99846.84;;;25.06;46.71
56829;BME280;52443;50.130;8.718;2022-07-23T00:29:07;99854.63;;;24.98;46.82
56829;BME280;52443;50.130;8.718;2022-07-23T00:34:09;99877.47;;;24.89;47.14
56829;BME280;52443;50.130;8.718;2022-07-23T00:39:14;99879.88;;;24.81;46.88
56829;BME280;52443;50.130;8.718;2022-07-23T00:44:20;99880.22;;;24.76;47.13
56829;BME280;52443;50.130;8.718;2022-07-23T00:49:25;99867.19;;;24.73;47.48
56829;BME280;52443;50.130;8.718;2022-07-23T00:54:30;99859.22;;;24.73;47.44
56829;BME280;52443;50.130;8.718;2022-07-23T00:59:33;99867.41;;;24.70;47.49
56829;BME280;52443;50.130;8.718;2022-07-23T01:04:36;99858.97;;;24.65;47.91
56829;BME280;52443;50.130;8.718;2022-07-23T01:09:41;99855.34;;;24.55;48.02
56829;BME280;52443;50.130;8.718;2022-07-23T01:14:44;99852.13;;;24.51;48.31
56829;BME280;52443;50.130;8.718;2022-07-23T01:19:47;99855.38;;;24.44;48.30
56829;BME280;52443;50.130;8.718;2022-07-23T01:24:52;99863.44;;;24.42;48.73
56829;BME280;52443;50.130;8.718;2022-07-23T01:30:00;99865.25;;;24.42;48.49
56829;BME280;52443;50.130;8.718;2022-07-23T01:35:05;99876.00;;;24.40;48.60
56829;BME280;52443;50.130;8.718;2022-07-23T01:40:11;99885.66;;;24.41;49.03
56829;BME280;52443;50.130;8.718;2022-07-23T01:45:14;99877.47;;;24.33;49.53
56829;BME280;52443;50.130;8.718;2022-07-23T01:50:21;99858.00;;;24.22;50.03
56829;BME280;52443;50.130;8.718;2022-07-23T01:55:47;99827.53;;;24.14;50.17
56829;BME280;52443;50.130;8.718;2022-07-23T02:00:50;99828.13;;;24.07;50.39
56829;BME280;52443;50.130;8.718;2022-07-23T02:05:54;99838.63;;;24.08;50.30
56829;BME280;52443;50.130;8.718;2022-07-23T02:10:59;99850.31;;;24.06;50.34
56829;BME280;52443;50.130;8.718;2022-07-23T02:16:02;99879.22;;;24.10;50.04
56829;BME280;52443;50.130;8.718;2022-07-23T02:21:06;99885.22;;;24.12;50.12
56829;BME280;52443;50.130;8.718;2022-07-23T02:26:12;99887.53;;;24.17;49.81
56829;BME280;52443;50.130;8.718;2022-07-23T02:31:23;99890.00;;;24.20;49.97
56829;BME280;52443;50.130;8.718;2022-07-23T02:36:27;99892.66;;;24.20;49.92
56829;BME280;52443;50.130;8.718;2022-07-23T02:41:32;99900.50;;;24.22;49.55
56829;BME280;52443;50.130;8.718;2022-07-23T02:46:35;99898.94;;;24.30;49.77
56829;BME280;52443;50.130;8.718;2022-07-23T02:51:39;99910.78;;;24.37;49.33
56829;BME280;52443;50.130;8.718;2022-07-23T02:56:45;99905.34;;;24.39;49.40
56829;BME280;52443;50.130;8.718;2022-07-23T03:01:47;99897.25;;;24.40;49.27
56829;BME280;52443;50.130;8.718;2022-07-23T03:06:50;99914.28;;;24.38;49.25
56829;BME280;52443;50.130;8.718;2022-07-23T03:11:55;99899.66;;;24.32;49.53
56829;BME280;52443;50.130;8.718;2022-07-23T03:16:57;99889.25;;;24.29;49.56
56829;BME280;52443;50.130;8.718;2022-07-23T03:22:00;99887.44;;;24.19;49.86
56829;BME280;52443;50.130;8.718;2022-07-23T03:27:06;99906.34;;;24.03;50.42
56829;BME280;52443;50.130;8.718;2022-07-23T03:32:09;99903.28;;;23.96;50.59
56829;BME280;52443;50.130;8.718;2022-07-23T03:37:13;99898.56;;;23.89;51.24
56829;BME280;52443;50.130;8.718;2022-07-23T03:42:17;99903.13;;;23.76;51.13
56829;BME280;52443;50.130;8.718;2022-07-23T03:47:21;99911.84;;;23.65;51.92
56829;BME280;52443;50.130;8.718;2022-07-23T03:52:24;99910.84;;;23.55;52.21
56829;BME280;52443;50.130;8.718;2022-07-23T03:57:30;99915.66;;;23.50;52.55
56829;BME280;52443;50.130;8.718;2022-07-23T04:02:33;99922.13;;;23.46;52.69
56829;BME280;52443;50.130;8.718;2022-07-23T04:07:37;99932.44;;;23.38;53.00
56829;BME280;52443;50.130;8.718;2022-07-23T04:12:42;99941.56;;;23.33;52.97
56829;BME280;52443;50.130;8.718;2022-07-23T04:17:45;99942.13;;;23.26;53.44
56829;BME280;52443;50.130;8.718;2022-07-23T04:22:51;99939.06;;;23.19;53.35
56829;BME280;52443;50.130;8.718;2022-07-23T04:27:57;99930.59;;;23.14;53.42
56829;BME280;52443;50.130;8.718;2022-07-23T04:33:00;99949.50;;;23.10;53.68
56829;BME280;52443;50.130;8.718;2022-07-23T04:38:04;99959.34;;;23.08;53.22
56829;BME280;52443;50.130;8.718;2022-07-23T04:43:09;99967.19;;;23.09;53.09
56829;BME280;52443;50.130;8.718;2022-07-23T04:48:19;99973.56;;;23.07;53.31
56829;BME280;52443;50.130;8.718;2022-07-23T04:53:27;99980.03;;;23.03;52.85
56829;BME280;52443;50.130;8.718;2022-07-23T04:58:36;99988.31;;;22.98;52.94
56829;BME280;52443;50.130;8.718;2022-07-23T05:03:40;100007.50;;;23.02;52.73
56829;BME280;52443;50.130;8.718;2022-07-23T05:08:43;100010.66;;;23.07;52.31
56829;BME280;52443;50.130;8.718;2022-07-23T05:13:48;100014.94;;;23.09;52.20
56829;BME280;52443;50.130;8.718;2022-07-23T05:18:51;100006.44;;;23.17;51.80
56829;BME280;52443;50.130;8.718;2022-07-23T05:23:53;100014.38;;;23.17;51.15
56829;BME280;52443;50.130;8.718;2022-07-23T05:28:59;100017.75;;;23.19;51.11
56829;BME280;52443;50.130;8.718;2022-07-23T05:34:05;100003.13;;;23.26;50.31
56829;BME280;52443;50.130;8.718;2022-07-23T05:39:09;99996.13;;;23.25;50.17
56829;BME280;52443;50.130;8.718;2022-07-23T05:44:14;100022.13;;;23.20;49.94
56829;BME280;52443;50.130;8.718;2022-07-23T05:49:19;100024.66;;;23.21;50.11
56829;BME280;52443;50.130;8.718;2022-07-23T05:54:40;100036.53;;;23.28;49.85
56829;BME280;52443;50.130;8.718;2022-07-23T05:59:46;100037.56;;;23.39;49.45
56829;BME280;52443;50.130;8.718;2022-07-23T06:04:49;100039.38;;;23.51;49.05
56829;BME280;52443;50.130;8.718;2022-07-23T06:10:04;100036.56;;;23.65;49.11
56829;BME280;52443;50.130;8.718;2022-07-23T06:15:09;100034.66;;;23.67;48.72
56829;BME280;52443;50.130;8.718;2022-07-23T06:20:13;100040.59;;;23.70;48.60
56829;BME280;52443;50.130;8.718;2022-07-23T06:25:17;100036.31;;;23.81;48.36
56829;BME280;52443;50.130;8.718;2022-07-23T06:30:23;100046.91;;;23.93;47.79
56829;BME280;52443;50.130;8.718;2022-07-23T06:35:26;100044.91;;;24.08;47.71
56829;BME280;52443;50.130;8.718;2022-07-23T06:40:29;100047.44;;;24.22;47.06
56829;BME280;52443;50.130;8.718;2022-07-23T06:45:34;100053.94;;;24.29;46.76
56829;BME280;52443;50.130;8.718;2022-07-23T06:50:36;100050.97;;;24.34;46.20
56829;BME280;52443;50.130;8.718;2022-07-23T06:55:40;100047.13;;;24.38;45.64
56829;BME280;52443;50.130;8.718;2022-07-23T07:00:45;100044.84;;;24.44;45.29
56829;BME280;52443;50.130;8.718;2022-07-23T07:05:48;100046.34;;;24.60;44.83
56829;BME280;52443;50.130;8.718;2022-07-23T07:10:51;100051.81;;;24.69;44.49
56829;BME280;52443;50.130;8.718;2022-07-23T07:15:55;100061.38;;;24.83;44.26
56829;BME280;52443;50.130;8.718;2022-07-23T07:20:58;100067.47;;;25.07;43.81
56829;BME280;52443;50.130;8.718;2022-07-23T07:26:01;100080.78;;;25.29;43.18
56829;BME280;52443;50.130;8.718;2022-07-23T07:31:05;100081.75;;;25.40;42.70
56829;BME280;52443;50.130;8.718;2022-07-23T07:36:08;100093.00;;;25.54;42.00
56829;BME280;52443;50.130;8.718;2022-07-23T07:41:11;100093.88;;;25.66;41.34
56829;BME280;52443;50.130;8.718;2022-07-23T07:46:15;100105.09;;;25.81;41.29
56829;BME280;52443;50.130;8.718;2022-07-23T07:51:18;100118.63;;;26.00;41.02
56829;BME280;52443;50.130;8.718;2022-07-23T07:56:22;100119.34;;;26.13;40.87
56829;BME280;52443;50.130;8.718;2022-07-23T08:01:26;100114.47;;;26.29;40.57
56829;BME280;52443;50.130;8.718;2022-07-23T08:06:29;100108.97;;;26.42;40.37
56829;BME280;52443;50.130;8.718;2022-07-23T08:11:32;100111.13;;;26.48;39.96
56829;BME280;52443;50.130;8.718;2022-07-23T08:16:36;100119.47;;;26.54;40.28
56829;BME280;52443;50.130;8.718;2022-07-23T08:21:58;100122.88;;;26.77;39.95
56829;BME280;52443;50.130;8.718;2022-07-23T11:13:47;100112.78;;;26.28;40.58
56829;BME280;52443;50.130;8.718;2022-07-23T11:19:07;100117.41;;;26.90;39.20
56829;BME280;52443;50.130;8.718;2022-07-23T11:24:12;100108.72;;;27.49;37.90
56829;BME280;52443;50.130;8.718;2022-07-23T11:29:44;100101.03;;;27.95;37.14
56829;BME280;52443;50.130;8.718;2022-07-23T11:34:51;100096.03;;;28.31;35.84
56829;BME280;52443;50.130;8.718;2022-07-23T11:39:55;100100.69;;;28.57;35.22
56829;BME280;52443;50.130;8.718;2022-07-23T11:45:00;100093.06;;;28.72;34.94
56829;BME280;52443;50.130;8.718;2022-07-23T11:50:06;100094.06;;;28.90;34.82
56829;BME280;52443;50.130;8.718;2022-07-23T11:55:10;100086.44;;;28.95;34.29
56829;BME280;52443;50.130;8.718;2022-07-23T12:00:17;100090.94;;;29.05;34.72
56829;BME280;52443;50.130;8.718;2022-07-23T12:05:24;100079.06;;;29.17;34.27
56829;BME280;52443;50.130;8.718;2022-07-23T12:10:33;100080.16;;;29.24;33.93
56829;BME280;52443;50.130;8.718;2022-07-23T12:15:41;100078.47;;;29.32;33.53
56829;BME280;52443;50.130;8.718;2022-07-23T12:20:48;100072.94;;;29.44;33.87
56829;BME280;52443;50.130;8.718;2022-07-23T12:25:53;100068.69;;;29.51;33.35
56829;BME280;52443;50.130;8.718;2022-07-23T12:30:58;100062.34;;;29.52;33.74
56829;BME280;52443;50.130;8.718;2022-07-23T12:36:03;100068.22;;;29.55;33.55
56829;BME280;52443;50.130;8.718;2022-07-23T12:41:07;100071.59;;;29.57;33.74
56829;BME280;52443;50.130;8.718;2022-07-23T12:46:13;100080.63;;;29.56;33.47
56829;BME280;52443;50.130;8.718;2022-07-23T12:51:20;100072.75;;;29.55;33.59
56829;BME280;52443;50.130;8.718;2022-07-23T12:56:28;100072.59;;;29.56;33.08
56829;BME280;52443;50.130;8.718;2022-07-23T13:01:34;100077.81;;;29.58;33.49
56829;BME280;52443;50.130;8.718;2022-07-23T13:06:40;100078.66;;;29.58;33.82
56829;BME280;52443;50.130;8.718;2022-07-23T13:11:44;100073.97;;;29.60;33.86
56829;BME280;52443;50.130;8.718;2022-07-23T13:16:52;100069.47;;;29.61;33.95
56829;BME280;52443;50.130;8.718;2022-07-23T13:21:58;100081.03;;;29.61;33.72
56829;BME280;52443;50.130;8.718;2022-07-23T13:27:06;100077.34;;;29.62;33.66
56829;BME280;52443;50.130;8.718;2022-07-23T13:32:12;100077.22;;;29.64;33.85
56829;BME280;52443;50.130;8.718;2022-07-23T13:37:15;100073.94;;;29.70;33.91
56829;BME280;52443;50.130;8.718;2022-07-23T13:42:18;100078.28;;;29.71;33.66
56829;BME280;52443;50.130;8.718;2022-07-23T13:47:25;100071.66;;;29.75;34.05
56829;BME280;52443;50.130;8.718;2022-07-23T13:52:28;100074.59;;;29.82;33.07
56829;BME280;52443;50.130;8.718;2022-07-23T13:57:31;100068.63;;;29.88;32.94
56829;BME280;52443;50.130;8.718;2022-07-23T14:02:38;100071.31;;;29.88;32.95
56829;BME280;52443;50.130;8.718;2022-07-23T14:07:43;100060.28;;;29.91;33.28
56829;BME280;52443;50.130;8.718;2022-07-23T14:12:48;100068.19;;;29.92;32.57
56829;BME280;52443;50.130;8.718;2022-07-23T14:17:53;100057.91;;;29.88;32.64
56829;BME280;52443;50.130;8.718;2022-07-23T14:22:57;100067.47;;;29.90;32.71
56829;BME280;52443;50.130;8.718;2022-07-23T14:28:02;100070.28;;;29.89;32.15
56829;BME280;52443;50.130;8.718;2022-07-23T14:33:06;100071.72;;;29.93;32.38
56829;BME280;52443;50.130;8.718;2022-07-23T14:38:11;100069.09;;;30.01;31.93
56829;BME280;52443;50.130;8.718;2022-07-23T14:43:15;100069.66;;;30.04;31.90
56829;BME280;52443;50.130;8.718;2022-07-23T14:48:20;100073.88;;;30.07;32.15
56829;BME280;52443;50.130;8.718;2022-07-23T14:53:24;100069.50;;;30.06;31.96
56829;BME280;52443;50.130;8.718;2022-07-23T14:58:29;100077.53;;;30.06;32.12
56829;BME280;52443;50.130;8.718;2022-07-23T15:03:33;100074.00;;;30.05;31.44
56829;BME280;52443;50.130;8.718;2022-07-23T15:08:56;100064.69;;;30.09;31.62
56829;BME280;52443;50.130;8.718;2022-07-23T15:13:59;100060.16;;;30.10;31.20
56829;BME280;52443;50.130;8.718;2022-07-23T15:19:03;100070.91;;;30.10;30.74
56829;BME280;52443;50.130;8.718;2022-07-23T15:24:09;100066.19;;;30.12;30.25
56829;BME280;52443;50.130;8.718;2022-07-23T15:29:11;100065.34;;;30.11;29.45
56829;BME280;52443;50.130;8.718;2022-07-23T15:34:16;100072.41;;;30.12;29.51
56829;BME280;52443;50.130;8.718;2022-07-23T15:39:19;100068.88;;;30.12;28.84
56829;BME280;52443;50.130;8.718;2022-07-23T15:44:21;100063.84;;;30.09;28.88
56829;BME280;52443;50.130;8.718;2022-07-23T15:49:46;100066.81;;;30.06;29.49
56829;BME280;52443;50.130;8.718;2022-07-23T15:54:50;100058.09;;;30.04;29.36
56829;BME280;52443;50.130;8.718;2022-07-23T15:59:54;100060.22;;;30.00;29.25
56829;BME280;52443;50.130;8.718;2022-07-23T16:04:58;100051.66;;;29.97;29.53
56829;BME280;52443;50.130;8.718;2022-07-23T16:10:02;100055.31;;;29.96;29.27
56829;BME280;52443;50.130;8.718;2022-07-23T16:15:06;100056.31;;;29.95;29.23
56829;BME280;52443;50.130;8.718;2022-07-23T16:20:12;100055.47;;;29.94;29.32
56829;BME280;52443;50.130;8.718;2022-07-23T16:25:14;100059.16;;;29.93;28.87
56829;BME280;52443;50.130;8.718;2022-07-23T16:30:17;100062.84;;;29.92;28.63
56829;BME280;52443;50.130;8.718;2022-07-23T16:35:23;100058.47;;;29.91;28.67
56829;BME280;52443;50.130;8.718;2022-07-23T16:40:27;100062.25;;;29.89;28.67
56829;BME280;52443;50.130;8.718;2022-07-23T16:45:30;100059.88;;;29.86;28.35
56829;BME280;52443;50.130;8.718;2022-07-23T16:50:34;100061.84;;;29.84;28.21
56829;BME280;52443;50.130;8.718;2022-07-23T16:55:39;100060.16;;;29.83;28.57
56829;BME280;52443;50.130;8.718;2022-07-23T17:00:42;100072.88;;;29.80;28.38
56829;BME280;52443;50.130;8.718;2022-07-23T17:05:46;100076.56;;;29.79;28.69
56829;BME280;52443;50.130;8.718;2022-07-23T17:10:49;100069.66;;;29.77;28.68
56829;BME280;52443;50.130;8.718;2022-07-23T17:15:53;100073.34;;;29.76;29.01
56829;BME280;52443;50.130;8.718;2022-07-23T17:20:58;100080.69;;;29.74;28.71
56829;BME280;52443;50.130;8.718;2022-07-23T17:26:07;100083.81;;;29.69;28.81
56829;BME280;52443;50.130;8.718;2022-07-23T17:31:10;100087.09;;;29.63;28.48
56829;BME280;52443;50.130;8.718;2022-07-23T17:36:14;100088.34;;;29.59;28.91
56829;BME280;52443;50.130;8.718;2022-07-23T17:41:17;100086.13;;;29.55;28.83
56829;BME280;52443;50.130;8.718;2022-07-23T17:46:20;100086.72;;;29.49;28.94
56829;BME280;52443;50.130;8.718;2022-07-23T17:51:24;100095.19;;;29.44;28.93
56829;BME280;52443;50.130;8.718;2022-07-23T17:56:27;100103.53;;;29.41;28.87
56829;BME280;52443;50.130;8.718;2022-07-23T18:01:30;100104.94;;;29.35;28.92
56829;BME280;52443;50.130;8.718;2022-07-23T18:06:34;100109.19;;;29.28;29.08
56829;BME280;52443;50.130;8.718;2022-07-23T18:11:38;100110.63;;;29.23;29.16
56829;BME280;52443;50.130;8.718;2022-07-23T18:16:41;100113.72;;;29.18;29.11
56829;BME280;52443;50.130;8.718;2022-07-23T18:21:45;100112.31;;;29.14;29.46
56829;BME280;52443;50.130;8.718;2022-07-23T18:26:49;100123.31;;;29.11;29.50
56829;BME280;52443;50.130;8.718;2022-07-23T18:31:52;100121.78;;;29.09;29.81
56829;BME280;52443;50.130;8.718;2022-07-23T18:36:58;100118.56;;;29.05;29.81
56829;BME280;52443;50.130;8.718;2022-07-23T18:42:02;100124.19;;;29.02;29.80
56829;BME280;52443;50.130;8.718;2022-07-23T18:47:09;100125.31;;;28.99;29.86
56829;BME280;52443;50.130;8.718;2022-07-23T18:52:13;100138.00;;;28.97;30.21
56829;BME280;52443;50.130;8.718;2022-07-23T18:57:17;100148.41;;;28.91;30.08
56829;BME280;52443;50.130;8.718;2022-07-23T19:02:20;100144.63;;;28.84;30.02
56829;BME280;52443;50.130;8.718;2022-07-23T19:07:25;100150.41;;;28.79;30.37
56829;BME280;52443;50.130;8.718;2022-07-23T19:12:27;100148.16;;;28.75;30.69
56829;BME280;52443;50.130;8.718;2022-07-23T19:17:30;100148.69;;;28.69;30.81
56829;BME280;52443;50.130;8.718;2022-07-23T19:22:35;100153.75;;;28.62;30.87
56829;BME280;52443;50.130;8.718;2022-07-23T19:27:38;100161.78;;;28.52;31.04
56829;BME280;52443;50.130;8.718;2022-07-23T19:32:41;100172.19;;;28.46;31.05
56829;BME280;52443;50.130;8.718;2022-07-23T19:37:45;100175.97;;;28.34;31.12
56829;BME280;52443;50.130;8.718;2022-07-23T19:42:48;100191.84;;;28.26;31.50
56829;BME280;52443;50.130;8.718;2022-07-23T19:47:56;100192.66;;;28.16;31.51
56829;BME280;52443;50.130;8.718;2022-07-23T19:53:01;100204.13;;;28.07;31.84
56829;BME280;52443;50.130;8.718;2022-07-23T19:58:04;100205.38;;;28.03;31.99
56829;BME280;52443;50.130;8.718;2022-07-23T20:03:07;100217.47;;;27.98;32.22
56829;BME280;52443;50.130;8.718;2022-07-23T20:08:11;100214.22;;;27.94;32.08
56829;BME280;52443;50.130;8.718;2022-07-23T20:13:19;100216.06;;;27.94;32.36
56829;BME280;52443;50.130;8.718;2022-07-23T20:18:22;100219.56;;;27.94;32.53
56829;BME280;52443;50.130;8.718;2022-07-23T20:23:26;100217.31;;;27.90;32.49
56829;BME280;52443;50.130;8.718;2022-07-23T20:29:30;100218.09;;;27.81;32.70
56829;BME280;52443;50.130;8.718;2022-07-23T20:35:28;100190.84;;;27.56;32.86
56829;BME280;52443;50.130;8.718;2022-07-23T20:47:15;100225.97;;;27.52;33.40
56829;BME280;52443;50.130;8.718;2022-07-23T20:52:19;100223.78;;;27.46;33.31
56829;BME280;52443;50.130;8.718;2022-07-23T20:57:26;100230.38;;;27.42;33.39
56829;BME280;52443;50.130;8.718;2022-07-23T21:02:30;100241.69;;;27.34;33.55
56829;BME280;52443;50.130;8.718;2022-07-23T21:07:57;100241.75;;;27.23;33.86
56829;BME280;52443;50.130;8.718;2022-07-23T21:14:00;100255.72;;;27.15;33.87
56829;BME280;52443;50.130;8.718;2022-07-23T21:19:03;100273.84;;;27.12;34.01
56829;BME280;52443;50.130;8.718;2022-07-23T21:24:07;100278.09;;;27.03;34.23
56829;BME280;52443;50.130;8.718;2022-07-23T21:29:11;100275.22;;;26.95;34.50
56829;BME280;52443;50.130;8.718;2022-07-23T21:34:19;100280.09;;;26.90;34.68
56829;BME280;52443;50.130;8.718;2022-07-23T21:39:21;100284.22;;;26.83;34.78
56829;BME280;52443;50.130;8.718;2022-07-23T21:44:25;100291.75;;;26.78;34.69
56829;BME280;52443;50.130;8.718;2022-07-23T21:49:28;100295.28;;;26.67;34.96
56829;BME280;52443;50.130;8.718;2022-07-23T21:54:31;100294.09;;;26.60;35.37
56829;BME280;52443;50.130;8.718;2022-07-23T21:59:35;100299.28;;;26.50;35.48
56829;BME280;52443;50.130;8.718;2022-07-23T22:04:40;100297.97;;;26.45;35.77
56829;BME280;52443;50.130;8.718;2022-07-23T22:09:58;100302.22;;;26.36;35.75
56829;BME280;52443;50.130;8.718;2022-07-23T22:15:17;100309.84;;;26.30;36.03
56829;BME280;52443;50.130;8.718;2022-07-23T22:20:26;100307.47;;;26.27;36.28
56829;BME280;52443;50.130;8.718;2022-07-23T22:25:39;100320.22;;;26.22;36.30
56829;BME280;52443;50.130;8.718;2022-07-23T22:31:03;100314.44;;;26.16;36.37
56829;BME280;52443;50.130;8.718;2022-07-23T22:36:09;100322.78;;;26.12;36.59
56829;BME280;52443;50.130;8.718;2022-07-23T22:41:11;100321.56;;;26.05;36.62
56829;BME280;52443;50.130;8.718;2022-07-23T22:46:15;100327.16;;;26.02;36.87
56829;BME280;52443;50.130;8.718;2022-07-23T22:51:18;100318.53;;;25.98;36.89
56829;BME280;52443;50.130;8.718;2022-07-23T22:56:22;100318.66;;;25.97;36.90
56829;BME280;52443;50.130;8.718;2022-07-23T23:01:27;100319.00;;;25.92;37.07
56829;BME280;52443;50.130;8.718;2022-07-23T23:06:31;100326.38;;;25.89;37.13
56829;BME280;52443;50.130;8.718;2022-07-23T23:11:33;100326.63;;;25.86;37.44
56829;BME280;52443;50.130;8.718;2022-07-23T23:16:38;100319.84;;;25.82;37.29
56829;BME280;52443;50.130;8.718;2022-07-23T23:21:42;100317.28;;;25.80;37.31
56829;BME280;52443;50.130;8.718;2022-07-23T23:26:44;100312.22;;;25.77;37.24
56829;BME280;52443;50.130;8.718;2022-07-23T23:31:48;100309.91;;;25.72;37.44
56829;BME280;52443;50.130;8.718;2022-07-23T23:36:52;100317.41;;;25.67;37.25
56829;BME280;52443;50.130;8.718;2022-07-23T23:41:56;100314.25;;;25.62;37.42
56829;BME280;52443;50.130;8.718;2022-07-23T23:47:00;100313.50;;;25.60;37.79
56829;BME280;52443;50.130;8.718;2022-07-23T23:52:04;100318.81;;;25.60;37.39
56829;BME280;52443;50.130;8.718;2022-07-23T23:57:07;100323.19;;;25.61;37.57
